Rucker, Arizona
Current Conditions -  °F | °C
As of 10:51 AM on Tuesday 21 Oct 2014 (Local Time) from KSAD Reporting Station
Clear Clear  
Wind Chill: 70°   Ceiling: Unl
Heat Index: 70°   Visibility: 10mi
Dew Point: 53°   Wind: 7mph
Humidity: 55%   Direction: 140°SE
Pressure: 30.03"   Gusts: NA
Location:  32.5598°N, 110.08°W
Report Text: KSAD 211751Z AUTO 14006KT 10SM CLR 21/12 A3003 RMK AO2 SLP133 T02110117 10217 20133 58002
Loading
Personal Weather Stations






























Interactive Weather Map
Tropical Storm Tracking
New forecast layout! Learn more

10-Day Weather Forecast

Advertisements
Track Severe Weather on mobile